• Join FlightAware (Why Join?)
  • Login
  • US Flag 
05:40AM EDT


 

Airport Tracker/Info


-or-


 

Live Flight TrackerFlight Track Log ✈ TAM3753 ✈ 24-Sep-2013 ✈ SBCF / CNF - SBRJ / SDU

Flight Track Log - Related Links

Times and Time Zones

All times are in EDT time to prevent confusion due to time zone crossing. See the TAM3753 flight status page for this flight to view local times or setup timezone preferences in your user account.

Time Position Orientation Groundspeed Altitude Reporting Facility
EDT Latitude Longitude Course Direction KTS MPH feet Rate Location/Type
06:12AM -19.9219 -43.8994 167° South  Level Estimated
06:13AM -19.9796 -43.8855 167° South  Level Estimated
06:14AM -20.0372 -43.8716 167° South  Level Estimated
06:15AM -20.0948 -43.8576 167° South  Level Estimated
06:16AM -20.1712 -43.8391 167° South  Level Estimated
06:17AM -20.2476 -43.8206 167° South  Level Estimated
06:18AM -20.3240 -43.8021 167° South  Level Estimated
06:19AM -20.4004 -43.7836 167° South  Level Estimated
06:20AM -20.4768 -43.7650 167° South  Level Estimated
06:21AM -20.5532 -43.7464 167° South  Level Estimated
06:22AM -20.6295 -43.7278 167° South  Level Estimated
06:23AM -20.7059 -43.7092 167° South  Level Estimated
06:24AM -20.7823 -43.6906 167° South  Level Estimated
06:25AM -20.8587 -43.6719 167° South  Level Estimated
06:26AM -20.9350 -43.6532 167° South  Level Estimated
06:27AM -21.0114 -43.6345 167° South  Level Estimated
06:28AM -21.0878 -43.6158 167° South  Level Estimated
06:29AM -21.1642 -43.5971 167° South  Level Estimated
06:30AM -21.2405 -43.5784 167° South  Level Estimated
06:31AM -21.3169 -43.5596 167° South  Level Estimated
06:32AM -21.3932 -43.5408 167° South  Level Estimated
06:33AM -21.4696 -43.5220 167° South  Level Estimated
06:34AM -21.5459 -43.5032 167° South  Level Estimated
06:35AM -21.6223 -43.4843 167° South  Level Estimated
06:36AM -21.6987 -43.4654 167° South  Level Estimated
06:37AM -21.7750 -43.4465 167° South  Level Estimated
06:38AM -21.8514 -43.4276 167° South  Level Estimated
06:39AM -21.9277 -43.4087 167° South  Level Estimated
06:40AM -22.0040 -43.3898 167° South  Level Estimated
06:41AM -22.0804 -43.3708 167° South  Level Estimated
06:42AM -22.1567 -43.3518 167° South  Level Estimated
06:43AM -22.2331 -43.3328 167° South  Level Estimated
06:44AM -22.3094 -43.3138 167° South  Level Estimated
06:45AM -22.3857 -43.2947 167° South  Level Estimated
06:46AM -22.4620 -43.2756 167° South  Level Estimated
06:47AM -22.5384 -43.2565 167° South  Level Estimated
06:48AM -22.6147 -43.2374 167° South  Level Estimated
06:49AM -22.6910 -43.2183 167° South  Level Estimated
06:50AM -22.7673 -43.1991 167° South  Level Estimated
06:51AM -22.8437 -43.1799 167° South  Level Estimated
06:52AM -22.9105 -43.1631 167° South  Level Estimated
06:53AM -22.9105 -43.1631 250° West  Level Estimated
06:54AM -22.9105 -43.1631 250° West  Level Estimated
06:55AM -22.9105 -43.1631 250° West  Level Estimated
06:56AM -22.9105 -43.1631 250° West  Level Estimated
06:57AM -22.9105 -43.1631 250° West  Level Estimated
06:58AM -22.9105 -43.1631 250° West  Level Estimated
06:59AM -22.9105 -43.1631 250° West  Level Estimated
07:00AM -22.9105 -43.1631 250° West  Level Estimated
07:01AM -22.9105 -43.1631 250° West  Level Estimated
07:02AM -22.9105 -43.1631 250° West  Level Estimated
07:03AM -22.9105 -43.1631 250° West  Level Estimated
07:04AM -22.9105 -43.1631 250° West  Level Estimated
07:05AM -22.9105 -43.1631 250° West  Level Estimated
07:06AM -22.9105 -43.1631 250° West  Level Estimated